sensor_id;sensor_type;location;lat;lon;timestamp;temperature;humidity
51613;DHT22;37694;51.748;14.326;2023-11-18T00:00:18;23.40;45.60
51613;DHT22;37694;51.748;14.326;2023-11-18T00:02:44;23.40;45.50
51613;DHT22;37694;51.748;14.326;2023-11-18T00:05:10;23.40;45.80
51613;DHT22;37694;51.748;14.326;2023-11-18T00:07:36;23.40;45.60
51613;DHT22;37694;51.748;14.326;2023-11-18T00:10:03;23.40;45.50
51613;DHT22;37694;51.748;14.326;2023-11-18T00:12:29;23.30;45.40
51613;DHT22;37694;51.748;14.326;2023-11-18T00:14:55;23.30;45.60
51613;DHT22;37694;51.748;14.326;2023-11-18T00:17:21;23.30;45.80
51613;DHT22;37694;51.748;14.326;2023-11-18T00:19:47;23.30;45.80
51613;DHT22;37694;51.748;14.326;2023-11-18T00:22:13;23.30;45.60
51613;DHT22;37694;51.748;14.326;2023-11-18T00:24:39;23.30;45.20
51613;DHT22;37694;51.748;14.326;2023-11-18T00:27:05;23.30;45.20
51613;DHT22;37694;51.748;14.326;2023-11-18T00:29:34;23.30;45.10
51613;DHT22;37694;51.748;14.326;2023-11-18T00:32:03;23.20;45.40
51613;DHT22;37694;51.748;14.326;2023-11-18T00:34:29;23.20;45.80
51613;DHT22;37694;51.748;14.326;2023-11-18T00:36:55;23.20;45.20
51613;DHT22;37694;51.748;14.326;2023-11-18T00:39:24;23.20;45.50
51613;DHT22;37694;51.748;14.326;2023-11-18T00:41:50;23.10;45.70
51613;DHT22;37694;51.748;14.326;2023-11-18T00:44:16;23.10;45.10
51613;DHT22;37694;51.748;14.326;2023-11-18T00:46:42;23.10;45.30
51613;DHT22;37694;51.748;14.326;2023-11-18T00:49:07;23.10;45.40
51613;DHT22;37694;51.748;14.326;2023-11-18T00:51:33;23.10;45.60
51613;DHT22;37694;51.748;14.326;2023-11-18T00:53:59;23.10;45.60
51613;DHT22;37694;51.748;14.326;2023-11-18T00:56:27;23.10;45.70
51613;DHT22;37694;51.748;14.326;2023-11-18T00:58:54;23.00;45.50
51613;DHT22;37694;51.748;14.326;2023-11-18T01:01:20;23.00;45.40
51613;DHT22;37694;51.748;14.326;2023-11-18T01:03:47;23.00;45.10
51613;DHT22;37694;51.748;14.326;2023-11-18T01:06:13;23.00;45.10
51613;DHT22;37694;51.748;14.326;2023-11-18T01:08:44;23.00;45.30
51613;DHT22;37694;51.748;14.326;2023-11-18T01:11:10;23.00;45.00
51613;DHT22;37694;51.748;14.326;2023-11-18T01:13:35;23.00;45.20
51613;DHT22;37694;51.748;14.326;2023-11-18T01:16:01;23.00;45.30
51613;DHT22;37694;51.748;14.326;2023-11-18T01:18:30;22.90;45.10
51613;DHT22;37694;51.748;14.326;2023-11-18T01:20:56;22.90;44.90
51613;DHT22;37694;51.748;14.326;2023-11-18T01:23:21;22.90;45.10
51613;DHT22;37694;51.748;14.326;2023-11-18T01:25:47;22.90;45.10
51613;DHT22;37694;51.748;14.326;2023-11-18T01:28:16;22.90;45.30
51613;DHT22;37694;51.748;14.326;2023-11-18T01:30:42;22.90;45.00
51613;DHT22;37694;51.748;14.326;2023-11-18T01:33:10;22.80;45.00
51613;DHT22;37694;51.748;14.326;2023-11-18T01:35:36;22.80;45.00
51613;DHT22;37694;51.748;14.326;2023-11-18T01:38:02;22.80;45.10
51613;DHT22;37694;51.748;14.326;2023-11-18T01:40:28;22.80;45.10
51613;DHT22;37694;51.748;14.326;2023-11-18T01:42:56;22.80;45.10
51613;DHT22;37694;51.748;14.326;2023-11-18T01:45:22;22.80;45.30
51613;DHT22;37694;51.748;14.326;2023-11-18T01:47:48;22.70;45.00
51613;DHT22;37694;51.748;14.326;2023-11-18T01:50:14;22.80;45.00
51613;DHT22;37694;51.748;14.326;2023-11-18T01:52:43;22.80;45.00
51613;DHT22;37694;51.748;14.326;2023-11-18T01:55:10;22.80;45.00
51613;DHT22;37694;51.748;14.326;2023-11-18T01:57:36;22.70;45.00
51613;DHT22;37694;51.748;14.326;2023-11-18T02:00:03;22.70;45.10
51613;DHT22;37694;51.748;14.326;2023-11-18T02:02:32;22.70;45.00
51613;DHT22;37694;51.748;14.326;2023-11-18T02:04:58;22.70;45.00
51613;DHT22;37694;51.748;14.326;2023-11-18T02:07:27;22.70;45.20
51613;DHT22;37694;51.748;14.326;2023-11-18T02:09:54;22.70;45.20
51613;DHT22;37694;51.748;14.326;2023-11-18T02:12:31;22.70;45.10
51613;DHT22;37694;51.748;14.326;2023-11-18T02:15:01;22.70;45.00
51613;DHT22;37694;51.748;14.326;2023-11-18T02:17:29;22.60;45.20
51613;DHT22;37694;51.748;14.326;2023-11-18T02:20:17;22.60;45.00
51613;DHT22;37694;51.748;14.326;2023-11-18T02:22:46;22.60;45.00
51613;DHT22;37694;51.748;14.326;2023-11-18T02:25:18;22.60;45.00
51613;DHT22;37694;51.748;14.326;2023-11-18T02:27:45;22.60;45.10
51613;DHT22;37694;51.748;14.326;2023-11-18T02:30:12;22.60;45.10
51613;DHT22;37694;51.748;14.326;2023-11-18T02:32:55;22.60;45.10
51613;DHT22;37694;51.748;14.326;2023-11-18T02:35:29;22.60;45.40
51613;DHT22;37694;51.748;14.326;2023-11-18T02:37:56;22.50;45.00
51613;DHT22;37694;51.748;14.326;2023-11-18T02:40:31;22.50;45.00
51613;DHT22;37694;51.748;14.326;2023-11-18T02:42:59;22.50;45.00
51613;DHT22;37694;51.748;14.326;2023-11-18T02:45:26;22.50;45.20
51613;DHT22;37694;51.748;14.326;2023-11-18T02:47:52;22.50;45.10
51613;DHT22;37694;51.748;14.326;2023-11-18T02:50:23;22.50;45.30
51613;DHT22;37694;51.748;14.326;2023-11-18T02:52:49;22.50;45.10
51613;DHT22;37694;51.748;14.326;2023-11-18T02:55:15;22.50;45.10
51613;DHT22;37694;51.748;14.326;2023-11-18T02:57:41;22.40;45.10
51613;DHT22;37694;51.748;14.326;2023-11-18T03:00:07;22.40;45.30
51613;DHT22;37694;51.748;14.326;2023-11-18T03:02:45;22.50;45.10
51613;DHT22;37694;51.748;14.326;2023-11-18T03:05:13;22.40;44.90
51613;DHT22;37694;51.748;14.326;2023-11-18T03:07:44;22.40;45.10
51613;DHT22;37694;51.748;14.326;2023-11-18T03:10:12;22.40;44.90
51613;DHT22;37694;51.748;14.326;2023-11-18T03:12:49;22.40;45.20
51613;DHT22;37694;51.748;14.326;2023-11-18T03:15:15;22.30;45.40
51613;DHT22;37694;51.748;14.326;2023-11-18T03:17:48;22.30;45.30
51613;DHT22;37694;51.748;14.326;2023-11-18T03:20:23;22.30;45.30
51613;DHT22;37694;51.748;14.326;2023-11-18T03:22:50;22.30;45.00
51613;DHT22;37694;51.748;14.326;2023-11-18T03:25:17;22.30;45.10
51613;DHT22;37694;51.748;14.326;2023-11-18T03:27:43;22.30;45.10
51613;DHT22;37694;51.748;14.326;2023-11-18T03:30:12;22.30;45.10
51613;DHT22;37694;51.748;14.326;2023-11-18T03:32:39;22.30;45.00
51613;DHT22;37694;51.748;14.326;2023-11-18T03:35:08;22.30;45.00
51613;DHT22;37694;51.748;14.326;2023-11-18T03:37:37;22.20;45.00
51613;DHT22;37694;51.748;14.326;2023-11-18T03:40:11;22.20;45.00
51613;DHT22;37694;51.748;14.326;2023-11-18T03:42:37;22.20;45.30
51613;DHT22;37694;51.748;14.326;2023-11-18T03:45:03;22.20;45.10
51613;DHT22;37694;51.748;14.326;2023-11-18T03:47:30;22.20;45.30
51613;DHT22;37694;51.748;14.326;2023-11-18T03:49:56;22.20;45.30
51613;DHT22;37694;51.748;14.326;2023-11-18T03:52:22;22.20;45.30
51613;DHT22;37694;51.748;14.326;2023-11-18T03:54:48;22.20;45.20
51613;DHT22;37694;51.748;14.326;2023-11-18T03:57:14;22.20;45.30
51613;DHT22;37694;51.748;14.326;2023-11-18T03:59:40;22.20;45.30
51613;DHT22;37694;51.748;14.326;2023-11-18T04:02:08;22.20;45.50
51613;DHT22;37694;51.748;14.326;2023-11-18T04:04:37;22.10;45.50
51613;DHT22;37694;51.748;14.326;2023-11-18T04:07:03;22.10;45.20
51613;DHT22;37694;51.748;14.326;2023-11-18T04:09:29;22.10;45.20
51613;DHT22;37694;51.748;14.326;2023-11-18T04:11:55;22.10;45.30
51613;DHT22;37694;51.748;14.326;2023-11-18T04:14:21;22.10;45.40
51613;DHT22;37694;51.748;14.326;2023-11-18T04:16:50;22.10;45.30
51613;DHT22;37694;51.748;14.326;2023-11-18T04:19:15;22.10;45.20
51613;DHT22;37694;51.748;14.326;2023-11-18T04:21:41;22.10;45.30
51613;DHT22;37694;51.748;14.326;2023-11-18T04:24:07;22.10;45.20
51613;DHT22;37694;51.748;14.326;2023-11-18T04:26:32;22.10;46.10
51613;DHT22;37694;51.748;14.326;2023-11-18T04:28:58;22.00;45.20
51613;DHT22;37694;51.748;14.326;2023-11-18T04:31:24;22.10;45.30
51613;DHT22;37694;51.748;14.326;2023-11-18T04:33:50;22.00;45.40
51613;DHT22;37694;51.748;14.326;2023-11-18T04:36:16;22.00;45.30
51613;DHT22;37694;51.748;14.326;2023-11-18T04:38:42;22.00;45.30
51613;DHT22;37694;51.748;14.326;2023-11-18T04:41:09;22.00;45.20
51613;DHT22;37694;51.748;14.326;2023-11-18T04:43:35;22.00;45.20
51613;DHT22;37694;51.748;14.326;2023-11-18T04:46:00;22.00;45.40
51613;DHT22;37694;51.748;14.326;2023-11-18T04:48:26;22.00;45.30
51613;DHT22;37694;51.748;14.326;2023-11-18T04:50:52;22.00;45.60
51613;DHT22;37694;51.748;14.326;2023-11-18T04:53:18;22.00;45.40
51613;DHT22;37694;51.748;14.326;2023-11-18T04:55:43;22.00;45.50
51613;DHT22;37694;51.748;14.326;2023-11-18T04:58:09;21.90;45.40
51613;DHT22;37694;51.748;14.326;2023-11-18T05:00:38;21.90;45.50
51613;DHT22;37694;51.748;14.326;2023-11-18T05:03:07;21.90;45.40
51613;DHT22;37694;51.748;14.326;2023-11-18T05:05:36;21.90;45.30
51613;DHT22;37694;51.748;14.326;2023-11-18T05:08:04;21.90;45.20
51613;DHT22;37694;51.748;14.326;2023-11-18T05:10:32;21.90;45.70
51613;DHT22;37694;51.748;14.326;2023-11-18T05:12:58;21.90;45.60
51613;DHT22;37694;51.748;14.326;2023-11-18T05:15:23;21.90;45.50
51613;DHT22;37694;51.748;14.326;2023-11-18T05:17:53;21.90;45.60
51613;DHT22;37694;51.748;14.326;2023-11-18T05:20:20;22.00;45.50
51613;DHT22;37694;51.748;14.326;2023-11-18T05:22:46;21.90;45.90
51613;DHT22;37694;51.748;14.326;2023-11-18T05:25:12;21.90;46.60
51613;DHT22;37694;51.748;14.326;2023-11-18T05:27:38;21.90;46.30
51613;DHT22;37694;51.748;14.326;2023-11-18T05:30:10;21.90;46.00
51613;DHT22;37694;51.748;14.326;2023-11-18T05:32:36;21.90;46.30
51613;DHT22;37694;51.748;14.326;2023-11-18T05:35:03;21.90;46.50
51613;DHT22;37694;51.748;14.326;2023-11-18T05:37:30;21.90;46.20
51613;DHT22;37694;51.748;14.326;2023-11-18T05:40:01;21.90;46.20
51613;DHT22;37694;51.748;14.326;2023-11-18T05:42:35;21.90;46.10
51613;DHT22;37694;51.748;14.326;2023-11-18T05:45:03;21.90;45.90
51613;DHT22;37694;51.748;14.326;2023-11-18T05:47:30;21.90;45.90
51613;DHT22;37694;51.748;14.326;2023-11-18T05:49:56;21.90;45.90
51613;DHT22;37694;51.748;14.326;2023-11-18T05:52:22;21.90;45.90
51613;DHT22;37694;51.748;14.326;2023-11-18T05:54:48;21.90;46.10
51613;DHT22;37694;51.748;14.326;2023-11-18T05:57:17;21.90;46.20
51613;DHT22;37694;51.748;14.326;2023-11-18T05:59:43;21.90;46.00
51613;DHT22;37694;51.748;14.326;2023-11-18T06:02:09;21.90;46.10
51613;DHT22;37694;51.748;14.326;2023-11-18T06:04:43;21.90;46.10
51613;DHT22;37694;51.748;14.326;2023-11-18T06:07:09;21.90;46.70
51613;DHT22;37694;51.748;14.326;2023-11-18T06:09:35;21.90;45.90
51613;DHT22;37694;51.748;14.326;2023-11-18T06:12:00;21.90;45.90
51613;DHT22;37694;51.748;14.326;2023-11-18T06:14:27;21.90;46.20
51613;DHT22;37694;51.748;14.326;2023-11-18T06:16:53;21.90;46.30
51613;DHT22;37694;51.748;14.326;2023-11-18T06:19:19;21.90;46.30
51613;DHT22;37694;51.748;14.326;2023-11-18T06:21:46;21.90;46.10
51613;DHT22;37694;51.748;14.326;2023-11-18T06:24:11;21.80;46.10
51613;DHT22;37694;51.748;14.326;2023-11-18T06:26:39;21.90;46.50
51613;DHT22;37694;51.748;14.326;2023-11-18T06:29:04;21.80;46.00
51613;DHT22;37694;51.748;14.326;2023-11-18T06:31:31;21.80;45.90
51613;DHT22;37694;51.748;14.326;2023-11-18T06:33:57;21.80;45.80
51613;DHT22;37694;51.748;14.326;2023-11-18T06:36:23;21.80;46.40
51613;DHT22;37694;51.748;14.326;2023-11-18T06:38:51;21.90;46.30
51613;DHT22;37694;51.748;14.326;2023-11-18T06:41:21;21.90;46.20
51613;DHT22;37694;51.748;14.326;2023-11-18T06:43:49;22.00;46.00
51613;DHT22;37694;51.748;14.326;2023-11-18T06:46:15;22.00;45.90
51613;DHT22;37694;51.748;14.326;2023-11-18T06:48:40;22.10;45.90
51613;DHT22;37694;51.748;14.326;2023-11-18T06:51:06;22.20;45.90
51613;DHT22;37694;51.748;14.326;2023-11-18T06:53:34;22.20;45.80
51613;DHT22;37694;51.748;14.326;2023-11-18T06:56:00;22.30;45.80
51613;DHT22;37694;51.748;14.326;2023-11-18T06:58:25;22.40;45.80
51613;DHT22;37694;51.748;14.326;2023-11-18T07:00:52;22.50;45.70
51613;DHT22;37694;51.748;14.326;2023-11-18T07:03:18;22.60;45.70
51613;DHT22;37694;51.748;14.326;2023-11-18T07:05:43;22.70;45.60
51613;DHT22;37694;51.748;14.326;2023-11-18T07:08:10;22.80;45.40
51613;DHT22;37694;51.748;14.326;2023-11-18T07:10:35;22.90;45.40
51613;DHT22;37694;51.748;14.326;2023-11-18T07:13:03;22.90;45.30
51613;DHT22;37694;51.748;14.326;2023-11-18T07:15:29;23.00;45.20
51613;DHT22;37694;51.748;14.326;2023-11-18T07:17:55;23.10;45.10
51613;DHT22;37694;51.748;14.326;2023-11-18T07:20:20;23.10;45.00
51613;DHT22;37694;51.748;14.326;2023-11-18T07:22:47;23.20;44.90
51613;DHT22;37694;51.748;14.326;2023-11-18T07:25:12;23.30;44.80
51613;DHT22;37694;51.748;14.326;2023-11-18T07:27:38;23.40;44.70
51613;DHT22;37694;51.748;14.326;2023-11-18T07:30:04;23.50;44.60
51613;DHT22;37694;51.748;14.326;2023-11-18T07:32:32;23.60;44.50
51613;DHT22;37694;51.748;14.326;2023-11-18T07:34:59;23.60;44.50
51613;DHT22;37694;51.748;14.326;2023-11-18T07:37:24;23.60;44.50
51613;DHT22;37694;51.748;14.326;2023-11-18T07:39:52;23.70;44.90
51613;DHT22;37694;51.748;14.326;2023-11-18T07:42:18;23.70;45.10
51613;DHT22;37694;51.748;14.326;2023-11-18T07:44:44;23.70;45.00
51613;DHT22;37694;51.748;14.326;2023-11-18T07:47:09;23.70;44.90
51613;DHT22;37694;51.748;14.326;2023-11-18T07:49:37;23.70;45.00
51613;DHT22;37694;51.748;14.326;2023-11-18T07:52:03;23.70;45.00
51613;DHT22;37694;51.748;14.326;2023-11-18T07:54:28;23.70;45.90
51613;DHT22;37694;51.748;14.326;2023-11-18T07:56:54;23.70;45.10
51613;DHT22;37694;51.748;14.326;2023-11-18T07:59:20;23.70;45.50
51613;DHT22;37694;51.748;14.326;2023-11-18T08:01:47;23.70;45.30
51613;DHT22;37694;51.748;14.326;2023-11-18T08:04:14;23.70;45.40
51613;DHT22;37694;51.748;14.326;2023-11-18T08:06:42;23.70;45.40
51613;DHT22;37694;51.748;14.326;2023-11-18T08:09:11;23.70;45.40
51613;DHT22;37694;51.748;14.326;2023-11-18T08:11:40;23.70;45.60
51613;DHT22;37694;51.748;14.326;2023-11-18T08:14:07;23.70;45.80
51613;DHT22;37694;51.748;14.326;2023-11-18T08:16:33;23.70;45.80
51613;DHT22;37694;51.748;14.326;2023-11-18T08:19:00;23.70;45.90
51613;DHT22;37694;51.748;14.326;2023-11-18T08:21:27;23.70;46.00
51613;DHT22;37694;51.748;14.326;2023-11-18T08:23:53;23.60;45.90
51613;DHT22;37694;51.748;14.326;2023-11-18T08:26:19;23.60;46.00
51613;DHT22;37694;51.748;14.326;2023-11-18T08:28:45;23.60;46.30
51613;DHT22;37694;51.748;14.326;2023-11-18T08:31:13;23.60;46.30
51613;DHT22;37694;51.748;14.326;2023-11-18T08:33:42;23.60;46.50
51613;DHT22;37694;51.748;14.326;2023-11-18T08:36:08;23.60;46.90
51613;DHT22;37694;51.748;14.326;2023-11-18T08:38:34;23.60;46.90
51613;DHT22;37694;51.748;14.326;2023-11-18T08:41:01;23.60;46.80
51613;DHT22;37694;51.748;14.326;2023-11-18T08:43:26;23.60;46.70
51613;DHT22;37694;51.748;14.326;2023-11-18T08:45:54;23.60;47.10
51613;DHT22;37694;51.748;14.326;2023-11-18T08:48:21;23.60;47.30
51613;DHT22;37694;51.748;14.326;2023-11-18T08:50:48;23.60;47.30
51613;DHT22;37694;51.748;14.326;2023-11-18T08:53:14;23.60;47.40
51613;DHT22;37694;51.748;14.326;2023-11-18T08:55:43;23.60;47.20
51613;DHT22;37694;51.748;14.326;2023-11-18T08:58:12;23.60;47.20
51613;DHT22;37694;51.748;14.326;2023-11-18T09:00:44;23.60;47.30
51613;DHT22;37694;51.748;14.326;2023-11-18T09:03:14;23.50;47.00
51613;DHT22;37694;51.748;14.326;2023-11-18T09:05:45;23.60;47.20
51613;DHT22;37694;51.748;14.326;2023-11-18T09:08:42;23.50;47.10
51613;DHT22;37694;51.748;14.326;2023-11-18T09:11:10;23.60;47.00
51613;DHT22;37694;51.748;14.326;2023-11-18T09:13:50;23.50;47.10
51613;DHT22;37694;51.748;14.326;2023-11-18T09:16:20;23.50;48.10
51613;DHT22;37694;51.748;14.326;2023-11-18T09:18:51;23.50;47.50
51613;DHT22;37694;51.748;14.326;2023-11-18T09:21:17;23.50;47.20
51613;DHT22;37694;51.748;14.326;2023-11-18T09:23:50;23.50;46.50
51613;DHT22;37694;51.748;14.326;2023-11-18T09:26:16;23.40;46.70
51613;DHT22;37694;51.748;14.326;2023-11-18T09:28:42;23.40;46.60
51613;DHT22;37694;51.748;14.326;2023-11-18T09:31:08;23.40;46.40
51613;DHT22;37694;51.748;14.326;2023-11-18T09:33:38;23.40;46.80
51613;DHT22;37694;51.748;14.326;2023-11-18T09:36:06;23.40;46.40
51613;DHT22;37694;51.748;14.326;2023-11-18T09:38:34;23.40;47.00
51613;DHT22;37694;51.748;14.326;2023-11-18T09:41:06;23.40;47.20
51613;DHT22;37694;51.748;14.326;2023-11-18T09:43:43;23.40;46.70
51613;DHT22;37694;51.748;14.326;2023-11-18T09:46:15;23.40;46.50
51613;DHT22;37694;51.748;14.326;2023-11-18T09:48:48;23.40;47.10
51613;DHT22;37694;51.748;14.326;2023-11-18T09:51:29;23.40;47.00
51613;DHT22;37694;51.748;14.326;2023-11-18T09:54:04;23.40;47.20
51613;DHT22;37694;51.748;14.326;2023-11-18T09:56:40;23.40;47.50
51613;DHT22;37694;51.748;14.326;2023-11-18T09:59:18;23.40;47.30
51613;DHT22;37694;51.748;14.326;2023-11-18T10:01:51;23.40;47.50
51613;DHT22;37694;51.748;14.326;2023-11-18T10:04:20;23.40;47.60
51613;DHT22;37694;51.748;14.326;2023-11-18T10:06:49;23.40;47.10
51613;DHT22;37694;51.748;14.326;2023-11-18T10:09:19;23.40;47.10
51613;DHT22;37694;51.748;14.326;2023-11-18T10:11:54;23.40;47.00
51613;DHT22;37694;51.748;14.326;2023-11-18T10:14:26;23.50;46.90
51613;DHT22;37694;51.748;14.326;2023-11-18T10:16:52;23.50;46.90
51613;DHT22;37694;51.748;14.326;2023-11-18T10:19:19;23.50;47.00
51613;DHT22;37694;51.748;14.326;2023-11-18T10:21:45;23.50;46.90
51613;DHT22;37694;51.748;14.326;2023-11-18T10:24:15;23.50;46.70
51613;DHT22;37694;51.748;14.326;2023-11-18T10:26:54;23.60;46.80
51613;DHT22;37694;51.748;14.326;2023-11-18T10:29:26;23.50;46.80
51613;DHT22;37694;51.748;14.326;2023-11-18T10:32:07;23.50;46.70
51613;DHT22;37694;51.748;14.326;2023-11-18T10:34:42;23.50;46.60
51613;DHT22;37694;51.748;14.326;2023-11-18T10:37:09;23.50;46.70
51613;DHT22;37694;51.748;14.326;2023-11-18T10:39:36;23.60;46.70
51613;DHT22;37694;51.748;14.326;2023-11-18T10:42:03;23.60;46.80
51613;DHT22;37694;51.748;14.326;2023-11-18T10:44:29;23.60;47.10
51613;DHT22;37694;51.748;14.326;2023-11-18T10:46:55;23.60;46.90
51613;DHT22;37694;51.748;14.326;2023-11-18T10:49:26;23.90;46.30
51613;DHT22;37694;51.748;14.326;2023-11-18T10:51:52;24.50;45.20
51613;DHT22;37694;51.748;14.326;2023-11-18T10:54:18;24.90;44.00
51613;DHT22;37694;51.748;14.326;2023-11-18T10:56:48;25.30;43.10
51613;DHT22;37694;51.748;14.326;2023-11-18T10:59:15;25.70;42.70
51613;DHT22;37694;51.748;14.326;2023-11-18T11:01:42;26.10;42.30
51613;DHT22;37694;51.748;14.326;2023-11-18T11:04:09;26.20;41.80
51613;DHT22;37694;51.748;14.326;2023-11-18T11:06:45;26.50;41.50
51613;DHT22;37694;51.748;14.326;2023-11-18T11:09:25;26.60;41.20
51613;DHT22;37694;51.748;14.326;2023-11-18T11:11:59;26.80;41.00
51613;DHT22;37694;51.748;14.326;2023-11-18T11:14:34;27.00;41.20
51613;DHT22;37694;51.748;14.326;2023-11-18T11:17:08;27.20;41.10
51613;DHT22;37694;51.748;14.326;2023-11-18T11:23:05;27.40;40.90
51613;DHT22;37694;51.748;14.326;2023-11-18T11:28:55;27.50;41.30
51613;DHT22;37694;51.748;14.326;2023-11-18T11:31:38;27.20;42.50
51613;DHT22;37694;51.748;14.326;2023-11-18T11:34:20;26.90;43.90
51613;DHT22;37694;51.748;14.326;2023-11-18T11:36:50;26.70;44.30
51613;DHT22;37694;51.748;14.326;2023-11-18T11:39:17;26.50;44.50
51613;DHT22;37694;51.748;14.326;2023-11-18T11:41:51;26.30;44.80
51613;DHT22;37694;51.748;14.326;2023-11-18T11:44:17;26.10;44.30
51613;DHT22;37694;51.748;14.326;2023-11-18T11:46:47;26.00;45.00
51613;DHT22;37694;51.748;14.326;2023-11-18T11:49:20;25.90;44.60
51613;DHT22;37694;51.748;14.326;2023-11-18T11:54:52;25.80;45.40
51613;DHT22;37694;51.748;14.326;2023-11-18T11:57:22;25.70;45.30
51613;DHT22;37694;51.748;14.326;2023-11-18T12:02:20;25.50;46.30
51613;DHT22;37694;51.748;14.326;2023-11-18T12:04:50;25.50;46.50
51613;DHT22;37694;51.748;14.326;2023-11-18T12:07:20;25.50;46.60
51613;DHT22;37694;51.748;14.326;2023-11-18T12:09:51;25.40;46.70
51613;DHT22;37694;51.748;14.326;2023-11-18T12:12:24;25.30;46.70
51613;DHT22;37694;51.748;14.326;2023-11-18T12:14:54;25.30;47.30
51613;DHT22;37694;51.748;14.326;2023-11-18T12:23:16;25.10;47.30
51613;DHT22;37694;51.748;14.326;2023-11-18T12:25:49;25.10;47.40
51613;DHT22;37694;51.748;14.326;2023-11-18T12:28:21;25.00;47.40
51613;DHT22;37694;51.748;14.326;2023-11-18T12:30:53;25.00;47.40
51613;DHT22;37694;51.748;14.326;2023-11-18T12:33:25;25.00;47.40
51613;DHT22;37694;51.748;14.326;2023-11-18T12:41:39;24.90;47.20
51613;DHT22;37694;51.748;14.326;2023-11-18T12:44:15;24.90;47.30
51613;DHT22;37694;51.748;14.326;2023-11-18T12:46:54;24.80;47.20
51613;DHT22;37694;51.748;14.326;2023-11-18T12:49:24;24.80;47.10
51613;DHT22;37694;51.748;14.326;2023-11-18T12:51:55;24.70;47.10
51613;DHT22;37694;51.748;14.326;2023-11-18T12:54:23;24.70;47.10
51613;DHT22;37694;51.748;14.326;2023-11-18T12:56:56;24.70;47.10
51613;DHT22;37694;51.748;14.326;2023-11-18T12:59:22;24.70;47.20
51613;DHT22;37694;51.748;14.326;2023-11-18T13:01:49;24.60;47.40
51613;DHT22;37694;51.748;14.326;2023-11-18T13:04:22;24.60;47.30
51613;DHT22;37694;51.748;14.326;2023-11-18T13:06:50;24.60;47.30
51613;DHT22;37694;51.748;14.326;2023-11-18T13:09:17;24.50;47.20
51613;DHT22;37694;51.748;14.326;2023-11-18T13:12:00;24.50;47.20
51613;DHT22;37694;51.748;14.326;2023-11-18T13:14:30;24.50;47.40
51613;DHT22;37694;51.748;14.326;2023-11-18T13:17:08;24.50;47.10
51613;DHT22;37694;51.748;14.326;2023-11-18T13:19:34;24.50;47.30
51613;DHT22;37694;51.748;14.326;2023-11-18T13:22:01;24.50;47.40
51613;DHT22;37694;51.748;14.326;2023-11-18T13:24:32;24.40;47.30
51613;DHT22;37694;51.748;14.326;2023-11-18T13:27:00;24.40;47.20
51613;DHT22;37694;51.748;14.326;2023-11-18T13:29:35;24.40;47.30
51613;DHT22;37694;51.748;14.326;2023-11-18T13:32:01;24.40;47.30
51613;DHT22;37694;51.748;14.326;2023-11-18T13:34:34;24.30;47.30
51613;DHT22;37694;51.748;14.326;2023-11-18T13:37:06;24.30;47.40
51613;DHT22;37694;51.748;14.326;2023-11-18T13:39:35;24.30;47.80
51613;DHT22;37694;51.748;14.326;2023-11-18T13:42:25;24.30;47.60
51613;DHT22;37694;51.748;14.326;2023-11-18T13:44:53;24.30;47.40
51613;DHT22;37694;51.748;14.326;2023-11-18T13:47:26;24.20;47.80
51613;DHT22;37694;51.748;14.326;2023-11-18T13:49:57;24.20;47.70
51613;DHT22;37694;51.748;14.326;2023-11-18T13:52:26;24.20;47.60
51613;DHT22;37694;51.748;14.326;2023-11-18T13:54:52;24.20;47.80
51613;DHT22;37694;51.748;14.326;2023-11-18T13:57:25;24.20;47.60
51613;DHT22;37694;51.748;14.326;2023-11-18T13:59:51;24.20;47.90
51613;DHT22;37694;51.748;14.326;2023-11-18T14:02:18;24.20;48.10
51613;DHT22;37694;51.748;14.326;2023-11-18T14:04:44;24.20;48.50
51613;DHT22;37694;51.748;14.326;2023-11-18T14:07:16;24.20;48.70
51613;DHT22;37694;51.748;14.326;2023-11-18T14:09:43;24.20;48.70
51613;DHT22;37694;51.748;14.326;2023-11-18T14:12:15;24.20;48.80
51613;DHT22;37694;51.748;14.326;2023-11-18T14:14:40;24.20;49.20
51613;DHT22;37694;51.748;14.326;2023-11-18T14:17:07;24.20;49.30
51613;DHT22;37694;51.748;14.326;2023-11-18T14:19:35;24.10;48.70
51613;DHT22;37694;51.748;14.326;2023-11-18T14:22:02;24.10;48.20
51613;DHT22;37694;51.748;14.326;2023-11-18T14:24:33;24.10;48.80
51613;DHT22;37694;51.748;14.326;2023-11-18T14:26:58;24.00;49.40
51613;DHT22;37694;51.748;14.326;2023-11-18T14:29:24;24.00;49.20
51613;DHT22;37694;51.748;14.326;2023-11-18T14:31:49;23.90;49.20
51613;DHT22;37694;51.748;14.326;2023-11-18T14:34:15;23.90;49.40
51613;DHT22;37694;51.748;14.326;2023-11-18T14:36:41;23.90;49.30
51613;DHT22;37694;51.748;14.326;2023-11-18T14:39:09;23.90;49.30
51613;DHT22;37694;51.748;14.326;2023-11-18T14:41:40;23.80;49.10
51613;DHT22;37694;51.748;14.326;2023-11-18T14:44:06;23.80;49.30
51613;DHT22;37694;51.748;14.326;2023-11-18T14:46:35;23.80;49.30
51613;DHT22;37694;51.748;14.326;2023-11-18T14:49:03;23.70;49.00
51613;DHT22;37694;51.748;14.326;2023-11-18T14:51:31;23.70;48.90
51613;DHT22;37694;51.748;14.326;2023-11-18T14:53:57;23.70;49.00
51613;DHT22;37694;51.748;14.326;2023-11-18T14:56:23;23.70;48.90
51613;DHT22;37694;51.748;14.326;2023-11-18T14:58:49;23.70;48.80
51613;DHT22;37694;51.748;14.326;2023-11-18T15:01:18;23.60;48.70
51613;DHT22;37694;51.748;14.326;2023-11-18T15:03:45;23.60;48.30
51613;DHT22;37694;51.748;14.326;2023-11-18T15:06:13;23.60;48.40
51613;DHT22;37694;51.748;14.326;2023-11-18T15:08:39;23.60;48.30
51613;DHT22;37694;51.748;14.326;2023-11-18T15:11:08;23.50;48.40
51613;DHT22;37694;51.748;14.326;2023-11-18T15:13:34;23.50;48.80
51613;DHT22;37694;51.748;14.326;2023-11-18T15:16:00;23.50;48.80
51613;DHT22;37694;51.748;14.326;2023-11-18T15:18:26;23.50;49.00
51613;DHT22;37694;51.748;14.326;2023-11-18T15:20:53;23.40;48.70
51613;DHT22;37694;51.748;14.326;2023-11-18T15:23:19;23.40;48.80
51613;DHT22;37694;51.748;14.326;2023-11-18T15:25:47;23.40;48.60
51613;DHT22;37694;51.748;14.326;2023-11-18T15:28:16;23.40;48.70
51613;DHT22;37694;51.748;14.326;2023-11-18T15:30:43;23.30;48.80
51613;DHT22;37694;51.748;14.326;2023-11-18T15:33:09;23.30;48.70
51613;DHT22;37694;51.748;14.326;2023-11-18T15:35:36;23.30;48.70
51613;DHT22;37694;51.748;14.326;2023-11-18T15:38:13;23.30;48.60
51613;DHT22;37694;51.748;14.326;2023-11-18T15:40:42;23.30;48.60
51613;DHT22;37694;51.748;14.326;2023-11-18T15:43:08;23.20;48.70
51613;DHT22;37694;51.748;14.326;2023-11-18T15:45:37;23.20;48.50